ミールヌイ の空港の天気 - METARとTAF

Mirny ( UERR / MJZ ) - ロシア ミールヌイ
飛行場実況気象(Metar)
観測時間06/24 18:30 YAKT (06/24 09:30 UTC)
風向・風速北北西 3m/s
視程10km以上
天気現象
全天の8割程度の雲 雲底高度 180m
気温18℃
湿度94%
気圧1010hPa
METARUERR 240930Z 34003MPS 9999 BKN006 18/17 Q1010 R25/290150 NOSIG RMK QBB190 QFE726
過去の天気等 Google飛行場航空写真 Wunderground天気予報

過去48時間のMETAR

飛行場予報(TAF)
発表時間: 6/24 17:00 YAKT (6/24 08:00 UTC)
予報対象時間: 24日18時 YAKT ~ 25日18時 YAKT
風向・風速北 4m/s
視程10km以上
全天の4割程度の雲 雲底高度 300m
全天の8割程度の積乱雲 雲底高度 910m
全天を覆う雲 雲底高度 3050m
24日18時 YAKT ~ 24日21時 YAKT に一時的に
視程4000m
天気現象弱いしゅう雨 もや
全天の8割程度の雲 雲底高度 180m
全天を覆う積乱雲 雲底高度 610m
TAF UERR 240800Z 2409/2509 35004MPS 9999 SCT010 BKN030CB OVC100
TEMPO 2409/2412 4000 -SHRA BR BKN006 OVC020CB